MSC Giovanna — 3FRB9 — position and weather

sailwx.info

Track history (hours):
 
Tides and Currents Weather Stations Pressure Air Temp Water Temp Dewpoint Dewpoint Depression Visibility Wind Speed Wind Dir Waves Ship Positions

MSC Giovanna

Last reported at 2017-Nov-17 14:29 UTC. Time now 2017-Nov-21 01:08 UTC.
Position N 40°45' E 028°52'.

Length 178 m; draft 6.3 m.

Type: Ship (hazmat cat A). MMSI: 357702000.

Date/timePositionNaut miles runAvg speedWind from/ knotsBaromVisibWave heightAir tempDewpointWater temp
2017-Nov-17 14:29N 40°45' E 028°52'815.9
2017-Nov-17 14:00N 40°46' E 029°02'815.3
2017-Nov-17 13:30N 40°50' E 029°11'2 4.0
2017-Nov-17 13:00N 40°51' E 029°14'2 4.4
2017-Nov-17 12:30N 40°49' E 029°11'612.2
2017-Nov-17 12:00N 40°46' E 029°05'816.1
2017-Nov-17 11:29N 40°43' E 028°55'3 5.5
2017-Nov-17 11:00N 40°44' E 028°58'814.4
2017-Nov-17 10:29N 40°45' E 029°08'1 2.5
2017-Nov-17 10:00N 40°45' E 029°09'0 0.4
2017-Nov-17 09:29N 40°46' E 029°09'0 0.5
2017-Nov-17 09:00N 40°46' E 029°09'2 3.3
2017-Nov-17 08:30N 40°47' E 029°10'3 5.3
2017-Nov-17 08:00N 40°49' E 029°12'4 8.1
2017-Nov-17 07:30N 40°51' E 029°16'1 1.4
2017-Nov-17 07:00N 40°51' E 029°17'0 0.0
2017-Nov-17 06:25N 40°51' E 029°17'0 0.0
2017-Nov-17 05:55N 40°51' E 029°17'0 0.0
2017-Nov-17 05:25N 40°51' E 029°17'0 0.0
2017-Nov-17 04:46N 40°51' E 029°17'0 0.0
2017-Nov-17 04:30N 40°51' E 029°17'0 0.0
2017-Nov-17 03:46N 40°51' E 029°17'0 0.0
2017-Nov-17 03:21N 40°51' E 029°17'0 0.0
2017-Nov-17 02:57N 40°51' E 029°17'0 0.0
2017-Nov-17 02:29N 40°51' E 029°17'0 0.0
2017-Nov-17 01:53N 40°51' E 029°17'0 0.0
2017-Nov-17 01:20N 40°51' E 029°17'0 0.0
2017-Nov-17 00:54N 40°51' E 029°17'0 0.0
2017-Nov-17 00:26N 40°51' E 029°17'0 0.0
2017-Nov-17 00:00N 40°51' E 029°17'0 0.0
2017-Nov-16 23:30N 40°51' E 029°17'0 0.0
2017-Nov-16 22:59N 40°51' E 029°17'0 0.0
2017-Nov-16 22:27N 40°51' E 029°17'0 0.0
2017-Nov-16 21:58N 40°51' E 029°17'0 0.0
2017-Nov-16 21:27N 40°51' E 029°17'0 0.0
2017-Nov-16 21:00N 40°51' E 029°17'0 0.0
2017-Nov-16 20:29N 40°51' E 029°17'0 0.0
2017-Nov-16 19:57N 40°51' E 029°17'0 0.0
2017-Nov-16 19:26N 40°51' E 029°17'0 0.0
2017-Nov-16 19:00N 40°51' E 029°17'0 0.0
2017-Nov-16 18:29N 40°51' E 029°17'0 0.0
2017-Nov-16 17:56N 40°51' E 029°17'0 0.0
2017-Nov-16 17:29N 40°51' E 029°17'0 0.0
2017-Nov-16 17:00N 40°51' E 029°17'0 0.0
2017-Nov-16 16:28N 40°51' E 029°17'0 0.0
2017-Nov-16 15:55N 40°51' E 029°17'0 0.0
2017-Nov-16 15:27N 40°51' E 029°17'0 0.0
2017-Nov-16 14:44N 40°51' E 029°17'0 0.0
2017-Nov-16 14:30N 40°51' E 029°17'0 0.0
2017-Nov-16 13:49N 40°51' E 029°17'0 0.0
2017-Nov-16 13:25N 40°51' E 029°17'0 0.0
2017-Nov-16 12:56N 40°51' E 029°17'0 0.0
2017-Nov-16 12:28N 40°51' E 029°17'0 0.0
2017-Nov-16 11:58N 40°51' E 029°17'0 0.0
2017-Nov-16 11:28N 40°51' E 029°17'0 0.0
2017-Nov-16 10:53N 40°51' E 029°17'0 0.0
2017-Nov-16 10:26N 40°51' E 029°17'0 0.0
2017-Nov-16 09:58N 40°51' E 029°17'0 0.0
2017-Nov-16 09:28N 40°51' E 029°17'0 0.0
2017-Nov-16 08:57N 40°51' E 029°17'0 0.0
2017-Nov-16 08:27N 40°51' E 029°17'0 0.0
2017-Nov-16 07:58N 40°51' E 029°17'0 0.0
2017-Nov-16 07:25N 40°51' E 029°17'0 0.0
2017-Nov-16 07:00N 40°51' E 029°17'0 0.0
2017-Nov-16 06:28N 40°51' E 029°17'0 0.0
2017-Nov-16 05:59N 40°51' E 029°17'0 0.0
2017-Nov-16 05:19N 40°51' E 029°17'0 0.0
2017-Nov-16 04:57N 40°51' E 029°17'0 0.0
2017-Nov-16 04:26N 40°51' E 029°17'0 0.0
2017-Nov-16 03:48N 40°51' E 029°17'0 0.0
2017-Nov-16 03:27N 40°51' E 029°17'0 0.0
2017-Nov-16 02:55N 40°51' E 029°17'0 0.0
2017-Nov-16 02:29N 40°51' E 029°17'0 0.0
2017-Nov-16 01:59N 40°51' E 029°17'0 0.0
2017-Nov-16 01:23N 40°51' E 029°17'0 0.0
2017-Nov-16 00:57N 40°51' E 029°17'0 0.0
2017-Nov-16 00:29N 40°51' E 029°17'0 0.0
2017-Nov-15 23:51N 40°51' E 029°17'0 0.0
2017-Nov-15 23:23N 40°51' E 029°17'0 0.0
2017-Nov-15 22:58N 40°51' E 029°17'0 0.0
2017-Nov-15 22:28N 40°51' E 029°17'0 0.0
2017-Nov-15 21:59N 40°51' E 029°17'0 0.0
2017-Nov-15 21:24N 40°51' E 029°17'0 0.0
2017-Nov-15 20:58N 40°51' E 029°17'0 0.0
2017-Nov-15 20:28N 40°51' E 029°17'0 0.0
2017-Nov-15 19:53N 40°51' E 029°17'0 0.0
2017-Nov-15 19:25N 40°51' E 029°17'0 0.0
2017-Nov-15 18:51N 40°51' E 029°17'0 0.0
2017-Nov-15 18:21N 40°51' E 029°17'0 0.0
2017-Nov-15 17:56N 40°51' E 029°17'0 0.0
2017-Nov-15 17:27N 40°51' E 029°17'0 0.0
2017-Nov-15 16:54N 40°51' E 029°17'0 0.0
2017-Nov-15 16:21N 40°51' E 029°17'0 0.0
2017-Nov-15 15:56N 40°51' E 029°17'0 0.0
2017-Nov-15 15:28N 40°51' E 029°17'0 0.0
2017-Nov-15 14:59N 40°51' E 029°17'0 0.0
2017-Nov-15 14:28N 40°51' E 029°17'0 0.0
2017-Nov-15 13:58N 40°51' E 029°17'0 0.0
2017-Nov-15 13:26N 40°51' E 029°17'0 0.0
2017-Nov-15 12:58N 40°51' E 029°17'0 0.0
2017-Nov-15 12:28N 40°51' E 029°17'0 0.0
2017-Nov-15 11:54N 40°51' E 029°17'0 0.0
2017-Nov-15 11:22N 40°51' E 029°17'0 0.0
2017-Nov-15 10:53N 40°51' E 029°17'0 0.0
2017-Nov-15 10:19N 40°51' E 029°17'0 0.0
2017-Nov-15 09:59N 40°51' E 029°17'0 0.0
2017-Nov-15 01:32N 40°51' E 029°17'0 0.0
2017-Nov-15 01:26N 40°51' E 029°17'0 0.0
2017-Nov-15 01:00N 40°51' E 029°17'0 0.0
2017-Nov-15 00:21N 40°51' E 029°17'0 0.0
2017-Nov-14 23:56N 40°51' E 029°17'0 0.0
2017-Nov-14 23:30N 40°51' E 029°17'0 0.0
2017-Nov-14 22:58N 40°51' E 029°17'0 0.0
2017-Nov-14 22:26N 40°51' E 029°17'0 0.0
2017-Nov-14 21:53N 40°51' E 029°17'0 0.0
2017-Nov-14 21:22N 40°51' E 029°17'0 0.0
2017-Nov-14 20:52N 40°51' E 029°17'0 0.0
2017-Nov-14 20:23N 40°51' E 029°17'0 0.0
2017-Nov-14 19:33N 40°51' E 029°17'0 0.0
2017-Nov-14 19:27N 40°51' E 029°17'0 0.0
2017-Nov-14 19:00N 40°51' E 029°17'0 0.0
2017-Nov-14 18:23N 40°51' E 029°17'0 0.0
2017-Nov-14 17:57N 40°51' E 029°17'0 0.0
2017-Nov-14 17:26N 40°51' E 029°17'0 0.0
2017-Nov-14 17:00N 40°51' E 029°17'0 0.0
2017-Nov-14 16:30N 40°51' E 029°17'0 0.0
2017-Nov-14 15:58N 40°51' E 029°17'0 0.0
2017-Nov-14 15:24N 40°51' E 029°17'0 0.1
2017-Nov-14 15:00N 40°51' E 029°17'2 3.0
2017-Nov-14 14:30N 40°51' E 029°15'3 6.3
2017-Nov-14 14:00N 40°50' E 029°12'3 5.9
2017-Nov-14 13:30N 40°47' E 029°13'0 0.6
2017-Nov-14 13:00N 40°47' E 029°13'0 0.7
2017-Nov-14 12:28N 40°47' E 029°12'0 0.7
2017-Nov-14 12:00N 40°48' E 029°12'0 0.8
2017-Nov-14 11:30N 40°48' E 029°12'0 0.8
2017-Nov-14 11:00N 40°48' E 029°11'1 1.8
2017-Nov-14 10:30N 40°49' E 029°11'2 4.7
2017-Nov-14 10:00N 40°51' E 029°13'3 4.2
2017-Nov-14 09:18N 40°51' E 029°17'0 0.1
2017-Nov-14 08:59N 40°51' E 029°17'0 0.0
2017-Nov-14 08:29N 40°51' E 029°17'0 0.0
2017-Nov-14 07:58N 40°51' E 029°17'0 0.0
2017-Nov-14 07:27N 40°51' E 029°17'0 0.0
2017-Nov-14 06:56N 40°51' E 029°17'0 0.0
2017-Nov-14 06:28N 40°51' E 029°17'0 0.0
2017-Nov-14 05:58N 40°51' E 029°17'0 0.0
2017-Nov-14 05:30N 40°51' E 029°17'0 0.0
2017-Nov-14 05:00N 40°51' E 029°17'0 0.0
2017-Nov-14 04:27N 40°51' E 029°17'0 0.0
2017-Nov-14 03:46N 40°51' E 029°17'0 0.0
2017-Nov-14 03:26N 40°51' E 029°17'0 0.0
2017-Nov-14 02:55N 40°51' E 029°17'0 0.0
2017-Nov-14 02:27N 40°51' E 029°17'0 0.0
2017-Nov-14 01:45N 40°51' E 029°17'0 0.0
2017-Nov-14 01:25N 40°51' E 029°17'0 0.0
2017-Nov-14 00:54N 40°51' E 029°17'0 0.0
2017-Nov-14 00:25N 40°51' E 029°17'0 0.0
2017-Nov-13 23:49N 40°51' E 029°17'0 0.0
2017-Nov-13 23:30N 40°51' E 029°17'0 0.0
2017-Nov-13 22:58N 40°51' E 029°17'0 0.0
2017-Nov-13 22:26N 40°51' E 029°17'  
2017-Nov-11 09:32N 40°51' E 029°17'0 0.0
2017-Nov-11 05:44N 40°51' E 029°17'0 0.0
2017-Nov-11 05:26N 40°51' E 029°17'0 0.0
2017-Nov-11 04:56N 40°51' E 029°17'0 0.0
2017-Nov-11 04:28N 40°51' E 029°17'0 0.0
2017-Nov-11 03:56N 40°51' E 029°17'0 0.0
2017-Nov-11 03:28N 40°51' E 029°17'0 0.0
2017-Nov-11 02:55N 40°51' E 029°17'0 0.0
2017-Nov-11 02:29N 40°51' E 029°17'0 0.0
2017-Nov-11 02:00N 40°51' E 029°17'0 0.0
2017-Nov-11 01:27N 40°51' E 029°17'0 0.0
2017-Nov-11 01:00N 40°51' E 029°17'0 0.0
2017-Nov-11 00:26N 40°51' E 029°17'0 0.0
2017-Nov-11 00:00N 40°51' E 029°17'0 0.0
2017-Nov-10 23:21N 40°51' E 029°17'0 0.0
2017-Nov-10 22:55N 40°51' E 029°17'0 0.0
2017-Nov-10 22:29N 40°51' E 029°17'0 0.0
2017-Nov-10 21:59N 40°51' E 029°17'0 0.0
2017-Nov-10 21:22N 40°51' E 029°17'0 0.0
2017-Nov-10 20:50N 40°51' E 029°17'0 0.0
2017-Nov-10 20:23N 40°51' E 029°17'0 0.0
2017-Nov-10 19:56N 40°51' E 029°17'0 0.0
2017-Nov-10 19:29N 40°51' E 029°17'0 0.0
2017-Nov-10 19:00N 40°51' E 029°17'0 0.0
2017-Nov-10 18:22N 40°51' E 029°17'0 0.0
2017-Nov-10 17:58N 40°51' E 029°17'0 0.0
2017-Nov-10 17:26N 40°51' E 029°17'0 0.0
2017-Nov-10 16:53N 40°51' E 029°17'0 0.0
2017-Nov-10 16:07N 40°51' E 029°17'0 0.0
2017-Nov-10 15:43N 40°51' E 029°17'0 0.0
2017-Nov-10 12:08N 40°51' E 029°17'0 0.0
2017-Nov-10 11:57N 40°51' E 029°17'0 0.0
2017-Nov-10 10:24N 40°51' E 029°17'0 0.0
2017-Nov-10 09:57N 40°51' E 029°17'0 0.0
2017-Nov-10 09:28N 40°51' E 029°17'0 0.0
2017-Nov-10 08:05N 40°51' E 029°17'0 0.0
2017-Nov-10 05:26N 40°51' E 029°17'0 0.0
2017-Nov-10 03:59N 40°51' E 029°17'0 0.0
2017-Nov-10 03:26N 40°51' E 029°17'0 0.0
2017-Nov-10 02:55N 40°51' E 029°17'0 0.0
2017-Nov-10 02:27N 40°51' E 029°17'0 0.0
2017-Nov-10 01:59N 40°51' E 029°17'0 0.0
2017-Nov-10 01:19N 40°51' E 029°17'0 0.0
2017-Nov-10 00:53N 40°51' E 029°17'0 0.0
2017-Nov-10 00:29N 40°51' E 029°17'0 0.0
2017-Nov-10 00:00N 40°51' E 029°17'0 0.0
2017-Nov-09 23:27N 40°51' E 029°17'0 0.0
2017-Nov-09 22:57N 40°51' E 029°17'0 0.0
2017-Nov-09 22:26N 40°51' E 029°17'0 0.0
2017-Nov-09 22:00N 40°51' E 029°17'0 0.0
2017-Nov-09 21:27N 40°51' E 029°17'0 0.0
2017-Nov-09 20:55N 40°51' E 029°17'0 0.0
2017-Nov-09 20:27N 40°51' E 029°17'0 0.0
2017-Nov-09 20:00N 40°51' E 029°17'0 0.0
2017-Nov-09 19:28N 40°51' E 029°17'0 0.0
2017-Nov-09 18:58N 40°51' E 029°17'0 0.0
2017-Nov-09 18:28N 40°51' E 029°17'0 0.0
2017-Nov-09 17:59N 40°51' E 029°17'0 0.0
2017-Nov-09 17:28N 40°51' E 029°17'0 0.0
2017-Nov-09 16:58N 40°51' E 029°17'0 0.0
2017-Nov-09 16:28N 40°51' E 029°17'0 0.0
2017-Nov-09 15:53N 40°51' E 029°17'0 0.0
2017-Nov-09 15:22N 40°51' E 029°17'0 0.0
2017-Nov-09 14:56N 40°51' E 029°17'0 0.0
2017-Nov-09 12:51N 40°51' E 029°17'0 0.0
2017-Nov-09 09:34N 40°51' E 029°17'0 0.0
2017-Nov-09 09:19N 40°51' E 029°17'0 0.0
2017-Nov-09 08:49N 40°51' E 029°17'0 0.0
2017-Nov-09 06:55N 40°51' E 029°17'0 0.0
2017-Nov-09 05:01N 40°51' E 029°17'0 0.0
2017-Nov-09 04:42N 40°51' E 029°17'0 0.0
2017-Nov-09 04:28N 40°51' E 029°17'0 0.0
2017-Nov-09 03:48N 40°51' E 029°17'0 0.2
2017-Nov-09 03:30N 40°51' E 029°17'1 0.9
2017-Nov-09 02:55N 40°51' E 029°17'0 0.0
2017-Nov-09 02:30N 40°51' E 029°17'0 0.1
2017-Nov-09 01:59N 40°51' E 029°17'0 0.1
2017-Nov-09 01:26N 40°51' E 029°17'0 0.1
2017-Nov-09 00:58N 40°51' E 029°17'1 0.9
2017-Nov-09 00:23N 40°51' E 029°17'0 0.0
2017-Nov-08 23:58N 40°51' E 029°17'0 0.0
2017-Nov-08 23:27N 40°51' E 029°17'0 0.0
2017-Nov-08 22:52N 40°51' E 029°17'0 0.0
2017-Nov-08 22:29N 40°51' E 029°17'0 0.0
2017-Nov-08 21:58N 40°51' E 029°17'0 0.0
2017-Nov-08 21:24N 40°51' E 029°17'0 0.0
2017-Nov-08 20:53N 40°51' E 029°17'0 0.0
2017-Nov-08 20:29N 40°51' E 029°17'0 0.0
2017-Nov-08 19:59N 40°51' E 029°17'0 0.0
2017-Nov-08 19:27N 40°51' E 029°17'0 0.0
2017-Nov-08 18:55N 40°51' E 029°17'0 0.0
2017-Nov-08 18:30N 40°51' E 029°17'0 0.0
2017-Nov-08 17:51N 40°51' E 029°17'0 0.0
2017-Nov-08 17:28N 40°51' E 029°17'0 0.0
2017-Nov-08 16:58N 40°51' E 029°17'0 0.0
2017-Nov-08 16:29N 40°51' E 029°17'0 0.0
2017-Nov-08 16:00N 40°51' E 029°17'0 0.0
2017-Nov-08 15:27N 40°51' E 029°17'0 0.0
2017-Nov-08 13:58N 40°51' E 029°17'0 0.0
2017-Nov-08 13:22N 40°51' E 029°17'0 0.0
2017-Nov-08 12:58N 40°51' E 029°17'0 0.0
2017-Nov-08 12:24N 40°51' E 029°17'0 0.0
2017-Nov-08 11:57N 40°51' E 029°17'0 0.0
2017-Nov-08 11:27N 40°51' E 029°17'0 0.0
2017-Nov-08 10:55N 40°51' E 029°17'0 0.0
2017-Nov-08 10:30N 40°51' E 029°17'0 0.0
2017-Nov-08 09:57N 40°51' E 029°17'0 0.0
2017-Nov-08 09:26N 40°51' E 029°17'0 0.0
2017-Nov-08 08:53N 40°51' E 029°17'0 0.0
2017-Nov-08 08:25N 40°51' E 029°17'0 0.0
2017-Nov-08 07:57N 40°51' E 029°17'0 0.0
2017-Nov-08 07:27N 40°51' E 029°17'0 0.0
2017-Nov-08 06:31N 40°51' E 029°17'0 0.1
2017-Nov-08 06:28N 40°51' E 029°17'0 0.0
2017-Nov-08 05:59N 40°51' E 029°17'0 0.0
2017-Nov-08 05:27N 40°51' E 029°17'0 0.0
2017-Nov-08 04:57N 40°51' E 029°17'0 0.0
2017-Nov-08 04:30N 40°51' E 029°17'0 0.0
2017-Nov-08 03:56N 40°51' E 029°17'0 0.0
2017-Nov-08 03:28N 40°51' E 029°17'0 0.0
2017-Nov-08 02:55N 40°51' E 029°17'0 0.0
2017-Nov-08 02:25N 40°51' E 029°17'0 0.0
2017-Nov-08 01:58N 40°51' E 029°17'0 0.0
2017-Nov-08 01:28N 40°51' E 029°17'0 0.0
2017-Nov-08 00:58N 40°51' E 029°17'0 0.0
2017-Nov-08 00:30N 40°51' E 029°17'0 0.0
2017-Nov-07 23:59N 40°51' E 029°17'0 0.0
2017-Nov-07 23:28N 40°51' E 029°17'0 0.0
2017-Nov-07 22:55N 40°51' E 029°17'0 0.0
2017-Nov-07 22:27N 40°51' E 029°17'0 0.0
2017-Nov-07 21:53N 40°51' E 029°17'0 0.0
2017-Nov-07 21:28N 40°51' E 029°17'0 0.0
2017-Nov-07 20:57N 40°51' E 029°17'0 0.0
2017-Nov-07 20:30N 40°51' E 029°17'0 0.0
2017-Nov-07 19:56N 40°51' E 029°17'0 0.0
2017-Nov-07 19:26N 40°51' E 029°17'0 0.0
2017-Nov-07 19:00N 40°51' E 029°17'0 0.0
2017-Nov-07 18:22N 40°51' E 029°17'0 0.0
2017-Nov-07 17:56N 40°51' E 029°17'0 0.0
2017-Nov-07 17:27N 40°51' E 029°17'0 0.0
2017-Nov-07 16:56N 40°51' E 029°17'0 0.0
2017-Nov-07 16:23N 40°51' E 029°17'0 0.0
2017-Nov-07 15:58N 40°51' E 029°17'0 0.0
2017-Nov-07 15:22N 40°51' E 029°17'0 0.0
2017-Nov-07 14:55N 40°51' E 029°17'  
Track history (hours):
 
Tides and Currents Weather Stations Pressure Air Temp Water Temp Dewpoint Dewpoint Depression Visibility Wind Speed Wind Dir Waves Ship Positions

MSC Giovanna

Last reported at 2017-Nov-17 14:29 UTC. Time now 2017-Nov-21 01:08 UTC.
Position N 40°45' E 028°52'.

Length 178 m; draft 6.3 m.

Type: Ship (hazmat cat A). MMSI: 357702000.

Date/timePositionNaut miles runAvg speedWind from/ knotsBaromVisibWave heightAir tempDewpointWater temp
2017-Nov-17 14:29N 40°45' E 028°52'815.9
2017-Nov-17 14:00N 40°46' E 029°02'815.3
2017-Nov-17 13:30N 40°50' E 029°11'2 4.0
2017-Nov-17 13:00N 40°51' E 029°14'2 4.4
2017-Nov-17 12:30N 40°49' E 029°11'612.2
2017-Nov-17 12:00N 40°46' E 029°05'816.1
2017-Nov-17 11:29N 40°43' E 028°55'3 5.5
2017-Nov-17 11:00N 40°44' E 028°58'814.4
2017-Nov-17 10:29N 40°45' E 029°08'1 2.5
2017-Nov-17 10:00N 40°45' E 029°09'0 0.4
2017-Nov-17 09:29N 40°46' E 029°09'0 0.5
2017-Nov-17 09:00N 40°46' E 029°09'2 3.3
2017-Nov-17 08:30N 40°47' E 029°10'3 5.3
2017-Nov-17 08:00N 40°49' E 029°12'4 8.1
2017-Nov-17 07:30N 40°51' E 029°16'1 1.4
2017-Nov-17 07:00N 40°51' E 029°17'0 0.0
2017-Nov-17 06:25N 40°51' E 029°17'0 0.0
2017-Nov-17 05:55N 40°51' E 029°17'0 0.0
2017-Nov-17 05:25N 40°51' E 029°17'0 0.0
2017-Nov-17 04:46N 40°51' E 029°17'0 0.0
2017-Nov-17 04:30N 40°51' E 029°17'0 0.0
2017-Nov-17 03:46N 40°51' E 029°17'0 0.0
2017-Nov-17 03:21N 40°51' E 029°17'0 0.0
2017-Nov-17 02:57N 40°51' E 029°17'0 0.0
2017-Nov-17 02:29N 40°51' E 029°17'0 0.0
2017-Nov-17 01:53N 40°51' E 029°17'0 0.0
2017-Nov-17 01:20N 40°51' E 029°17'0 0.0
2017-Nov-17 00:54N 40°51' E 029°17'0 0.0
2017-Nov-17 00:26N 40°51' E 029°17'0 0.0
2017-Nov-17 00:00N 40°51' E 029°17'0 0.0
2017-Nov-16 23:30N 40°51' E 029°17'0 0.0
2017-Nov-16 22:59N 40°51' E 029°17'0 0.0
2017-Nov-16 22:27N 40°51' E 029°17'0 0.0
2017-Nov-16 21:58N 40°51' E 029°17'0 0.0
2017-Nov-16 21:27N 40°51' E 029°17'0 0.0
2017-Nov-16 21:00N 40°51' E 029°17'0 0.0
2017-Nov-16 20:29N 40°51' E 029°17'0 0.0
2017-Nov-16 19:57N 40°51' E 029°17'0 0.0
2017-Nov-16 19:26N 40°51' E 029°17'0 0.0
2017-Nov-16 19:00N 40°51' E 029°17'0 0.0
2017-Nov-16 18:29N 40°51' E 029°17'0 0.0
2017-Nov-16 17:56N 40°51' E 029°17'0 0.0
2017-Nov-16 17:29N 40°51' E 029°17'0 0.0
2017-Nov-16 17:00N 40°51' E 029°17'0 0.0
2017-Nov-16 16:28N 40°51' E 029°17'0 0.0
2017-Nov-16 15:55N 40°51' E 029°17'0 0.0
2017-Nov-16 15:27N 40°51' E 029°17'0 0.0
2017-Nov-16 14:44N 40°51' E 029°17'0 0.0
2017-Nov-16 14:30N 40°51' E 029°17'0 0.0
2017-Nov-16 13:49N 40°51' E 029°17'0 0.0
2017-Nov-16 13:25N 40°51' E 029°17'0 0.0
2017-Nov-16 12:56N 40°51' E 029°17'0 0.0
2017-Nov-16 12:28N 40°51' E 029°17'0 0.0
2017-Nov-16 11:58N 40°51' E 029°17'0 0.0
2017-Nov-16 11:28N 40°51' E 029°17'0 0.0
2017-Nov-16 10:53N 40°51' E 029°17'0 0.0
2017-Nov-16 10:26N 40°51' E 029°17'0 0.0
2017-Nov-16 09:58N 40°51' E 029°17'0 0.0
2017-Nov-16 09:28N 40°51' E 029°17'0 0.0
2017-Nov-16 08:57N 40°51' E 029°17'0 0.0
2017-Nov-16 08:27N 40°51' E 029°17'0 0.0
2017-Nov-16 07:58N 40°51' E 029°17'0 0.0
2017-Nov-16 07:25N 40°51' E 029°17'0 0.0
2017-Nov-16 07:00N 40°51' E 029°17'0 0.0
2017-Nov-16 06:28N 40°51' E 029°17'0 0.0
2017-Nov-16 05:59N 40°51' E 029°17'0 0.0
2017-Nov-16 05:19N 40°51' E 029°17'0 0.0
2017-Nov-16 04:57N 40°51' E 029°17'0 0.0
2017-Nov-16 04:26N 40°51' E 029°17'0 0.0
2017-Nov-16 03:48N 40°51' E 029°17'0 0.0
2017-Nov-16 03:27N 40°51' E 029°17'0 0.0
2017-Nov-16 02:55N 40°51' E 029°17'0 0.0
2017-Nov-16 02:29N 40°51' E 029°17'0 0.0
2017-Nov-16 01:59N 40°51' E 029°17'0 0.0
2017-Nov-16 01:23N 40°51' E 029°17'0 0.0
2017-Nov-16 00:57N 40°51' E 029°17'0 0.0
2017-Nov-16 00:29N 40°51' E 029°17'0 0.0
2017-Nov-15 23:51N 40°51' E 029°17'0 0.0
2017-Nov-15 23:23N 40°51' E 029°17'0 0.0
2017-Nov-15 22:58N 40°51' E 029°17'0 0.0
2017-Nov-15 22:28N 40°51' E 029°17'0 0.0
2017-Nov-15 21:59N 40°51' E 029°17'0 0.0
2017-Nov-15 21:24N 40°51' E 029°17'0 0.0
2017-Nov-15 20:58N 40°51' E 029°17'0 0.0
2017-Nov-15 20:28N 40°51' E 029°17'0 0.0
2017-Nov-15 19:53N 40°51' E 029°17'0 0.0
2017-Nov-15 19:25N 40°51' E 029°17'0 0.0
2017-Nov-15 18:51N 40°51' E 029°17'0 0.0
2017-Nov-15 18:21N 40°51' E 029°17'0 0.0
2017-Nov-15 17:56N 40°51' E 029°17'0 0.0
2017-Nov-15 17:27N 40°51' E 029°17'0 0.0
2017-Nov-15 16:54N 40°51' E 029°17'0 0.0
2017-Nov-15 16:21N 40°51' E 029°17'0 0.0
2017-Nov-15 15:56N 40°51' E 029°17'0 0.0
2017-Nov-15 15:28N 40°51' E 029°17'0 0.0
2017-Nov-15 14:59N 40°51' E 029°17'0 0.0
2017-Nov-15 14:28N 40°51' E 029°17'0 0.0
2017-Nov-15 13:58N 40°51' E 029°17'0 0.0
2017-Nov-15 13:26N 40°51' E 029°17'0 0.0
2017-Nov-15 12:58N 40°51' E 029°17'0 0.0
2017-Nov-15 12:28N 40°51' E 029°17'0 0.0
2017-Nov-15 11:54N 40°51' E 029°17'0 0.0
2017-Nov-15 11:22N 40°51' E 029°17'0 0.0
2017-Nov-15 10:53N 40°51' E 029°17'0 0.0
2017-Nov-15 10:19N 40°51' E 029°17'0 0.0
2017-Nov-15 09:59N 40°51' E 029°17'0 0.0
2017-Nov-15 01:32N 40°51' E 029°17'0 0.0
2017-Nov-15 01:26N 40°51' E 029°17'0 0.0
2017-Nov-15 01:00N 40°51' E 029°17'0 0.0
2017-Nov-15 00:21N 40°51' E 029°17'0 0.0
2017-Nov-14 23:56N 40°51' E 029°17'0 0.0
2017-Nov-14 23:30N 40°51' E 029°17'0 0.0
2017-Nov-14 22:58N 40°51' E 029°17'0 0.0
2017-Nov-14 22:26N 40°51' E 029°17'0 0.0
2017-Nov-14 21:53N 40°51' E 029°17'0 0.0
2017-Nov-14 21:22N 40°51' E 029°17'0 0.0
2017-Nov-14 20:52N 40°51' E 029°17'0 0.0
2017-Nov-14 20:23N 40°51' E 029°17'0 0.0
2017-Nov-14 19:33N 40°51' E 029°17'0 0.0
2017-Nov-14 19:27N 40°51' E 029°17'0 0.0
2017-Nov-14 19:00N 40°51' E 029°17'0 0.0
2017-Nov-14 18:23N 40°51' E 029°17'0 0.0
2017-Nov-14 17:57N 40°51' E 029°17'0 0.0
2017-Nov-14 17:26N 40°51' E 029°17'0 0.0
2017-Nov-14 17:00N 40°51' E 029°17'0 0.0
2017-Nov-14 16:30N 40°51' E 029°17'0 0.0
2017-Nov-14 15:58N 40°51' E 029°17'0 0.0
2017-Nov-14 15:24N 40°51' E 029°17'0 0.1
2017-Nov-14 15:00N 40°51' E 029°17'2 3.0
2017-Nov-14 14:30N 40°51' E 029°15'3 6.3
2017-Nov-14 14:00N 40°50' E 029°12'3 5.9
2017-Nov-14 13:30N 40°47' E 029°13'0 0.6
2017-Nov-14 13:00N 40°47' E 029°13'0 0.7
2017-Nov-14 12:28N 40°47' E 029°12'0 0.7
2017-Nov-14 12:00N 40°48' E 029°12'0 0.8
2017-Nov-14 11:30N 40°48' E 029°12'0 0.8
2017-Nov-14 11:00N 40°48' E 029°11'1 1.8
2017-Nov-14 10:30N 40°49' E 029°11'2 4.7
2017-Nov-14 10:00N 40°51' E 029°13'3 4.2
2017-Nov-14 09:18N 40°51' E 029°17'0 0.1
2017-Nov-14 08:59N 40°51' E 029°17'0 0.0
2017-Nov-14 08:29N 40°51' E 029°17'0 0.0
2017-Nov-14 07:58N 40°51' E 029°17'0 0.0
2017-Nov-14 07:27N 40°51' E 029°17'0 0.0
2017-Nov-14 06:56N 40°51' E 029°17'0 0.0
2017-Nov-14 06:28N 40°51' E 029°17'0 0.0
2017-Nov-14 05:58N 40°51' E 029°17'0 0.0
2017-Nov-14 05:30N 40°51' E 029°17'0 0.0
2017-Nov-14 05:00N 40°51' E 029°17'0 0.0
2017-Nov-14 04:27N 40°51' E 029°17'0 0.0
2017-Nov-14 03:46N 40°51' E 029°17'0 0.0
2017-Nov-14 03:26N 40°51' E 029°17'0 0.0
2017-Nov-14 02:55N 40°51' E 029°17'0 0.0
2017-Nov-14 02:27N 40°51' E 029°17'0 0.0
2017-Nov-14 01:45N 40°51' E 029°17'0 0.0
2017-Nov-14 01:25N 40°51' E 029°17'0 0.0
2017-Nov-14 00:54N 40°51' E 029°17'0 0.0
2017-Nov-14 00:25N 40°51' E 029°17'0 0.0
2017-Nov-13 23:49N 40°51' E 029°17'0 0.0
2017-Nov-13 23:30N 40°51' E 029°17'0 0.0
2017-Nov-13 22:58N 40°51' E 029°17'0 0.0
2017-Nov-13 22:26N 40°51' E 029°17'  
2017-Nov-11 09:32N 40°51' E 029°17'0 0.0
2017-Nov-11 05:44N 40°51' E 029°17'0 0.0
2017-Nov-11 05:26N 40°51' E 029°17'0 0.0
2017-Nov-11 04:56N 40°51' E 029°17'0 0.0
2017-Nov-11 04:28N 40°51' E 029°17'0 0.0
2017-Nov-11 03:56N 40°51' E 029°17'0 0.0
2017-Nov-11 03:28N 40°51' E 029°17'0 0.0
2017-Nov-11 02:55N 40°51' E 029°17'0 0.0
2017-Nov-11 02:29N 40°51' E 029°17'0 0.0
2017-Nov-11 02:00N 40°51' E 029°17'0 0.0
2017-Nov-11 01:27N 40°51' E 029°17'0 0.0
2017-Nov-11 01:00N 40°51' E 029°17'0 0.0
2017-Nov-11 00:26N 40°51' E 029°17'0 0.0
2017-Nov-11 00:00N 40°51' E 029°17'0 0.0
2017-Nov-10 23:21N 40°51' E 029°17'0 0.0
2017-Nov-10 22:55N 40°51' E 029°17'0 0.0
2017-Nov-10 22:29N 40°51' E 029°17'0 0.0
2017-Nov-10 21:59N 40°51' E 029°17'0 0.0
2017-Nov-10 21:22N 40°51' E 029°17'0 0.0
2017-Nov-10 20:50N 40°51' E 029°17'0 0.0
2017-Nov-10 20:23N 40°51' E 029°17'0 0.0
2017-Nov-10 19:56N 40°51' E 029°17'0 0.0
2017-Nov-10 19:29N 40°51' E 029°17'0 0.0
2017-Nov-10 19:00N 40°51' E 029°17'0 0.0
2017-Nov-10 18:22N 40°51' E 029°17'0 0.0
2017-Nov-10 17:58N 40°51' E 029°17'0 0.0
2017-Nov-10 17:26N 40°51' E 029°17'0 0.0
2017-Nov-10 16:53N 40°51' E 029°17'0 0.0
2017-Nov-10 16:07N 40°51' E 029°17'0 0.0
2017-Nov-10 15:43N 40°51' E 029°17'0 0.0
2017-Nov-10 12:08N 40°51' E 029°17'0 0.0
2017-Nov-10 11:57N 40°51' E 029°17'0 0.0
2017-Nov-10 10:24N 40°51' E 029°17'0 0.0
2017-Nov-10 09:57N 40°51' E 029°17'0 0.0
2017-Nov-10 09:28N 40°51' E 029°17'0 0.0
2017-Nov-10 08:05N 40°51' E 029°17'0 0.0
2017-Nov-10 05:26N 40°51' E 029°17'0 0.0
2017-Nov-10 03:59N 40°51' E 029°17'0 0.0
2017-Nov-10 03:26N 40°51' E 029°17'0 0.0
2017-Nov-10 02:55N 40°51' E 029°17'0 0.0
2017-Nov-10 02:27N 40°51' E 029°17'0 0.0
2017-Nov-10 01:59N 40°51' E 029°17'0 0.0
2017-Nov-10 01:19N 40°51' E 029°17'0 0.0
2017-Nov-10 00:53N 40°51' E 029°17'0 0.0
2017-Nov-10 00:29N 40°51' E 029°17'0 0.0
2017-Nov-10 00:00N 40°51' E 029°17'0 0.0
2017-Nov-09 23:27N 40°51' E 029°17'0 0.0
2017-Nov-09 22:57N 40°51' E 029°17'0 0.0
2017-Nov-09 22:26N 40°51' E 029°17'0 0.0
2017-Nov-09 22:00N 40°51' E 029°17'0 0.0
2017-Nov-09 21:27N 40°51' E 029°17'0 0.0
2017-Nov-09 20:55N 40°51' E 029°17'0 0.0
2017-Nov-09 20:27N 40°51' E 029°17'0 0.0
2017-Nov-09 20:00N 40°51' E 029°17'0 0.0
2017-Nov-09 19:28N 40°51' E 029°17'0 0.0
2017-Nov-09 18:58N 40°51' E 029°17'0 0.0
2017-Nov-09 18:28N 40°51' E 029°17'0 0.0
2017-Nov-09 17:59N 40°51' E 029°17'0 0.0
2017-Nov-09 17:28N 40°51' E 029°17'0 0.0
2017-Nov-09 16:58N 40°51' E 029°17'0 0.0
2017-Nov-09 16:28N 40°51' E 029°17'0 0.0
2017-Nov-09 15:53N 40°51' E 029°17'0 0.0
2017-Nov-09 15:22N 40°51' E 029°17'0 0.0
2017-Nov-09 14:56N 40°51' E 029°17'0 0.0
2017-Nov-09 12:51N 40°51' E 029°17'0 0.0
2017-Nov-09 09:34N 40°51' E 029°17'0 0.0
2017-Nov-09 09:19N 40°51' E 029°17'0 0.0
2017-Nov-09 08:49N 40°51' E 029°17'0 0.0
2017-Nov-09 06:55N 40°51' E 029°17'0 0.0
2017-Nov-09 05:01N 40°51' E 029°17'0 0.0
2017-Nov-09 04:42N 40°51' E 029°17'0 0.0
2017-Nov-09 04:28N 40°51' E 029°17'0 0.0
2017-Nov-09 03:48N 40°51' E 029°17'0 0.2
2017-Nov-09 03:30N 40°51' E 029°17'1 0.9
2017-Nov-09 02:55N 40°51' E 029°17'0 0.0
2017-Nov-09 02:30N 40°51' E 029°17'0 0.1
2017-Nov-09 01:59N 40°51' E 029°17'0 0.1
2017-Nov-09 01:26N 40°51' E 029°17'0 0.1
2017-Nov-09 00:58N 40°51' E 029°17'1 0.9
2017-Nov-09 00:23N 40°51' E 029°17'0 0.0
2017-Nov-08 23:58N 40°51' E 029°17'0 0.0
2017-Nov-08 23:27N 40°51' E 029°17'0 0.0
2017-Nov-08 22:52N 40°51' E 029°17'0 0.0
2017-Nov-08 22:29N 40°51' E 029°17'0 0.0
2017-Nov-08 21:58N 40°51' E 029°17'0 0.0
2017-Nov-08 21:24N 40°51' E 029°17'0 0.0
2017-Nov-08 20:53N 40°51' E 029°17'0 0.0
2017-Nov-08 20:29N 40°51' E 029°17'0 0.0
2017-Nov-08 19:59N 40°51' E 029°17'0 0.0
2017-Nov-08 19:27N 40°51' E 029°17'0 0.0
2017-Nov-08 18:55N 40°51' E 029°17'0 0.0
2017-Nov-08 18:30N 40°51' E 029°17'0 0.0
2017-Nov-08 17:51N 40°51' E 029°17'0 0.0
2017-Nov-08 17:28N 40°51' E 029°17'0 0.0
2017-Nov-08 16:58N 40°51' E 029°17'0 0.0
2017-Nov-08 16:29N 40°51' E 029°17'0 0.0
2017-Nov-08 16:00N 40°51' E 029°17'0 0.0
2017-Nov-08 15:27N 40°51' E 029°17'0 0.0
2017-Nov-08 13:58N 40°51' E 029°17'0 0.0
2017-Nov-08 13:22N 40°51' E 029°17'0 0.0
2017-Nov-08 12:58N 40°51' E 029°17'0 0.0
2017-Nov-08 12:24N 40°51' E 029°17'0 0.0
2017-Nov-08 11:57N 40°51' E 029°17'0 0.0
2017-Nov-08 11:27N 40°51' E 029°17'0 0.0
2017-Nov-08 10:55N 40°51' E 029°17'0 0.0
2017-Nov-08 10:30N 40°51' E 029°17'0 0.0
2017-Nov-08 09:57N 40°51' E 029°17'0 0.0
2017-Nov-08 09:26N 40°51' E 029°17'0 0.0
2017-Nov-08 08:53N 40°51' E 029°17'0 0.0
2017-Nov-08 08:25N 40°51' E 029°17'0 0.0
2017-Nov-08 07:57N 40°51' E 029°17'0 0.0
2017-Nov-08 07:27N 40°51' E 029°17'0 0.0
2017-Nov-08 06:31N 40°51' E 029°17'0 0.1
2017-Nov-08 06:28N 40°51' E 029°17'0 0.0
2017-Nov-08 05:59N 40°51' E 029°17'0 0.0
2017-Nov-08 05:27N 40°51' E 029°17'0 0.0
2017-Nov-08 04:57N 40°51' E 029°17'0 0.0
2017-Nov-08 04:30N 40°51' E 029°17'0 0.0
2017-Nov-08 03:56N 40°51' E 029°17'0 0.0
2017-Nov-08 03:28N 40°51' E 029°17'0 0.0
2017-Nov-08 02:55N 40°51' E 029°17'0 0.0
2017-Nov-08 02:25N 40°51' E 029°17'0 0.0
2017-Nov-08 01:58N 40°51' E 029°17'0 0.0
2017-Nov-08 01:28N 40°51' E 029°17'0 0.0
2017-Nov-08 00:58N 40°51' E 029°17'0 0.0
2017-Nov-08 00:30N 40°51' E 029°17'0 0.0
2017-Nov-07 23:59N 40°51' E 029°17'0 0.0
2017-Nov-07 23:28N 40°51' E 029°17'0 0.0
2017-Nov-07 22:55N 40°51' E 029°17'0 0.0
2017-Nov-07 22:27N 40°51' E 029°17'0 0.0
2017-Nov-07 21:53N 40°51' E 029°17'0 0.0
2017-Nov-07 21:28N 40°51' E 029°17'0 0.0
2017-Nov-07 20:57N 40°51' E 029°17'0 0.0
2017-Nov-07 20:30N 40°51' E 029°17'0 0.0
2017-Nov-07 19:56N 40°51' E 029°17'0 0.0
2017-Nov-07 19:26N 40°51' E 029°17'0 0.0
2017-Nov-07 19:00N 40°51' E 029°17'0 0.0
2017-Nov-07 18:22N 40°51' E 029°17'0 0.0
2017-Nov-07 17:56N 40°51' E 029°17'0 0.0
2017-Nov-07 17:27N 40°51' E 029°17'0 0.0
2017-Nov-07 16:56N 40°51' E 029°17'0 0.0
2017-Nov-07 16:23N 40°51' E 029°17'0 0.0
2017-Nov-07 15:58N 40°51' E 029°17'0 0.0
2017-Nov-07 15:22N 40°51' E 029°17'0 0.0
2017-Nov-07 14:55N 40°51' E 029°17'  

Dump ship's entire track history